Terminal Aerodrome Forecast
Issued by NWS

Home | Current Version | Previous Version | Text Only | Print | Product List | Glossary On
Versions: 1 2 3 4 5 6 7 8 9 10 11 12 13 14 15 16 17 18 19 20 21 22 23 24 25 26 27
000
FTUS45 KREV 220500
TAFTRK
TAF
KTRK 220523Z 2206/2306 VRB04KT P6SM SCT180
     FM221700 23008KT 5SM HZ SCT180
     FM222000 24010KT 2SM HZ FU FEW030 SCT180
     FM230400 VRB03KT 4SM HZ SCT180
      AMD NOT SKED 2206/2212=

USA.gov is the U.S. government's official web portal to all federal, state and local government web resources and services.